sensor_id;sensor_type;location;lat;lon;timestamp;P1;durP1;ratioP1;P2;durP2;ratioP2
59418;SDS011;45224;50.904;6.038;2024-03-23T00:54:27;8.40;;;2.20;;
59418;SDS011;45224;50.904;6.038;2024-03-23T00:55:58;7.63;;;1.92;;
59418;SDS011;45224;50.904;6.038;2024-03-23T00:57:28;10.63;;;2.30;;
59418;SDS011;45224;50.904;6.038;2024-03-23T00:58:58;9.75;;;2.22;;
59418;SDS011;45224;50.904;6.038;2024-03-23T01:00:29;8.75;;;1.98;;
59418;SDS011;45224;50.904;6.038;2024-03-23T01:01:59;7.00;;;2.05;;
59418;SDS011;45224;50.904;6.038;2024-03-23T01:03:30;6.50;;;1.98;;
59418;SDS011;45224;50.904;6.038;2024-03-23T01:05:00;6.72;;;1.73;;
59418;SDS011;45224;50.904;6.038;2024-03-23T01:06:31;7.00;;;1.63;;
59418;SDS011;45224;50.904;6.038;2024-03-23T01:08:02;6.00;;;1.50;;
59418;SDS011;45224;50.904;6.038;2024-03-23T01:09:32;5.18;;;1.20;;
59418;SDS011;45224;50.904;6.038;2024-03-23T01:11:03;7.60;;;2.05;;
59418;SDS011;45224;50.904;6.038;2024-03-23T01:12:34;8.95;;;1.67;;
59418;SDS011;45224;50.904;6.038;2024-03-23T01:14:04;6.60;;;1.42;;
59418;SDS011;45224;50.904;6.038;2024-03-23T01:15:36;4.97;;;1.73;;
59418;SDS011;45224;50.904;6.038;2024-03-23T01:17:07;8.82;;;1.48;;
59418;SDS011;45224;50.904;6.038;2024-03-23T01:18:38;6.30;;;1.50;;
59418;SDS011;45224;50.904;6.038;2024-03-23T01:20:08;5.07;;;1.38;;
59418;SDS011;45224;50.904;6.038;2024-03-23T01:21:39;4.88;;;1.33;;
59418;SDS011;45224;50.904;6.038;2024-03-23T01:23:09;6.15;;;1.63;;
59418;SDS011;45224;50.904;6.038;2024-03-23T01:24:40;7.10;;;1.35;;
59418;SDS011;45224;50.904;6.038;2024-03-23T01:26:10;7.32;;;2.08;;
59418;SDS011;45224;50.904;6.038;2024-03-23T01:27:41;5.68;;;1.40;;
59418;SDS011;45224;50.904;6.038;2024-03-23T01:29:11;5.72;;;1.60;;
59418;SDS011;45224;50.904;6.038;2024-03-23T01:30:41;4.90;;;0.98;;
59418;SDS011;45224;50.904;6.038;2024-03-23T01:32:12;6.35;;;1.42;;
59418;SDS011;45224;50.904;6.038;2024-03-23T01:33:42;8.15;;;1.30;;
59418;SDS011;45224;50.904;6.038;2024-03-23T01:35:13;6.00;;;1.13;;
59418;SDS011;45224;50.904;6.038;2024-03-23T01:36:43;3.70;;;1.40;;
59418;SDS011;45224;50.904;6.038;2024-03-23T01:38:13;9.20;;;1.92;;
59418;SDS011;45224;50.904;6.038;2024-03-23T01:39:44;4.53;;;1.15;;
59418;SDS011;45224;50.904;6.038;2024-03-23T01:41:14;4.72;;;1.40;;
59418;SDS011;45224;50.904;6.038;2024-03-23T01:42:55;4.82;;;1.23;;
59418;SDS011;45224;50.904;6.038;2024-03-23T01:44:26;5.32;;;1.27;;
59418;SDS011;45224;50.904;6.038;2024-03-23T01:45:56;7.55;;;1.17;;
59418;SDS011;45224;50.904;6.038;2024-03-23T01:47:27;6.65;;;1.15;;
59418;SDS011;45224;50.904;6.038;2024-03-23T01:48:57;3.67;;;1.10;;
59418;SDS011;45224;50.904;6.038;2024-03-23T01:50:28;7.18;;;1.27;;
59418;SDS011;45224;50.904;6.038;2024-03-23T01:52:03;5.65;;;1.20;;
59418;SDS011;45224;50.904;6.038;2024-03-23T01:53:33;5.70;;;1.25;;
59418;SDS011;45224;50.904;6.038;2024-03-23T01:55:04;6.47;;;1.23;;
59418;SDS011;45224;50.904;6.038;2024-03-23T01:56:35;3.28;;;1.00;;
59418;SDS011;45224;50.904;6.038;2024-03-23T01:58:06;6.45;;;1.33;;
59418;SDS011;45224;50.904;6.038;2024-03-23T01:59:36;6.63;;;1.23;;
59418;SDS011;45224;50.904;6.038;2024-03-23T02:01:07;5.60;;;1.00;;
59418;SDS011;45224;50.904;6.038;2024-03-23T02:02:46;5.72;;;1.33;;
59418;SDS011;45224;50.904;6.038;2024-03-23T02:04:17;4.63;;;1.17;;
59418;SDS011;45224;50.904;6.038;2024-03-23T02:05:47;4.15;;;1.10;;
59418;SDS011;45224;50.904;6.038;2024-03-23T02:07:18;4.95;;;1.20;;
59418;SDS011;45224;50.904;6.038;2024-03-23T02:08:48;5.13;;;1.10;;
59418;SDS011;45224;50.904;6.038;2024-03-23T02:10:19;5.03;;;1.05;;
59418;SDS011;45224;50.904;6.038;2024-03-23T02:11:49;8.07;;;1.85;;
59418;SDS011;45224;50.904;6.038;2024-03-23T02:13:20;7.20;;;1.45;;
59418;SDS011;45224;50.904;6.038;2024-03-23T02:14:51;6.65;;;1.80;;
59418;SDS011;45224;50.904;6.038;2024-03-23T02:16:21;6.05;;;1.40;;
59418;SDS011;45224;50.904;6.038;2024-03-23T02:17:51;6.45;;;1.35;;
59418;SDS011;45224;50.904;6.038;2024-03-23T02:19:22;7.18;;;1.45;;
59418;SDS011;45224;50.904;6.038;2024-03-23T02:20:52;9.70;;;1.70;;
59418;SDS011;45224;50.904;6.038;2024-03-23T02:22:23;8.70;;;1.67;;
59418;SDS011;45224;50.904;6.038;2024-03-23T02:23:53;4.68;;;1.30;;
59418;SDS011;45224;50.904;6.038;2024-03-23T02:25:24;7.13;;;1.67;;
59418;SDS011;45224;50.904;6.038;2024-03-23T02:26:54;6.07;;;1.10;;
59418;SDS011;45224;50.904;6.038;2024-03-23T02:28:24;8.43;;;1.75;;
59418;SDS011;45224;50.904;6.038;2024-03-23T02:29:55;6.97;;;1.60;;
59418;SDS011;45224;50.904;6.038;2024-03-23T02:31:26;6.05;;;1.30;;
59418;SDS011;45224;50.904;6.038;2024-03-23T02:32:56;5.75;;;1.30;;
59418;SDS011;45224;50.904;6.038;2024-03-23T02:34:27;6.38;;;1.10;;
59418;SDS011;45224;50.904;6.038;2024-03-23T02:35:57;5.75;;;1.42;;
59418;SDS011;45224;50.904;6.038;2024-03-23T02:37:28;5.18;;;1.30;;
59418;SDS011;45224;50.904;6.038;2024-03-23T02:38:58;5.22;;;1.17;;
59418;SDS011;45224;50.904;6.038;2024-03-23T02:40:29;6.30;;;1.52;;
59418;SDS011;45224;50.904;6.038;2024-03-23T02:41:59;4.93;;;1.33;;
59418;SDS011;45224;50.904;6.038;2024-03-23T02:43:29;8.60;;;1.60;;
59418;SDS011;45224;50.904;6.038;2024-03-23T02:45:00;3.83;;;1.30;;
59418;SDS011;45224;50.904;6.038;2024-03-23T02:46:30;4.75;;;1.27;;
59418;SDS011;45224;50.904;6.038;2024-03-23T02:48:01;5.40;;;1.20;;
59418;SDS011;45224;50.904;6.038;2024-03-23T02:49:31;6.57;;;1.02;;
59418;SDS011;45224;50.904;6.038;2024-03-23T02:51:02;3.67;;;1.02;;
59418;SDS011;45224;50.904;6.038;2024-03-23T02:52:32;6.25;;;1.52;;
59418;SDS011;45224;50.904;6.038;2024-03-23T02:54:03;7.13;;;1.40;;
59418;SDS011;45224;50.904;6.038;2024-03-23T02:55:33;4.00;;;1.45;;
59418;SDS011;45224;50.904;6.038;2024-03-23T02:57:04;7.00;;;1.45;;
59418;SDS011;45224;50.904;6.038;2024-03-23T02:58:34;4.88;;;1.30;;
59418;SDS011;45224;50.904;6.038;2024-03-23T03:00:05;6.22;;;1.33;;
59418;SDS011;45224;50.904;6.038;2024-03-23T03:01:37;2.88;;;1.10;;
59418;SDS011;45224;50.904;6.038;2024-03-23T03:03:07;7.05;;;1.83;;
59418;SDS011;45224;50.904;6.038;2024-03-23T03:04:38;3.92;;;1.05;;
59418;SDS011;45224;50.904;6.038;2024-03-23T03:06:09;5.32;;;1.00;;
59418;SDS011;45224;50.904;6.038;2024-03-23T03:07:39;7.30;;;1.10;;
59418;SDS011;45224;50.904;6.038;2024-03-23T03:09:11;4.18;;;1.30;;
59418;SDS011;45224;50.904;6.038;2024-03-23T03:10:41;4.68;;;1.17;;
59418;SDS011;45224;50.904;6.038;2024-03-23T03:12:11;6.18;;;1.00;;
59418;SDS011;45224;50.904;6.038;2024-03-23T03:13:42;9.15;;;1.25;;
59418;SDS011;45224;50.904;6.038;2024-03-23T03:15:12;7.28;;;1.25;;
59418;SDS011;45224;50.904;6.038;2024-03-23T03:16:43;5.60;;;1.05;;
59418;SDS011;45224;50.904;6.038;2024-03-23T03:18:13;5.35;;;1.20;;
59418;SDS011;45224;50.904;6.038;2024-03-23T03:19:44;4.28;;;1.20;;
59418;SDS011;45224;50.904;6.038;2024-03-23T03:21:15;3.92;;;1.30;;
59418;SDS011;45224;50.904;6.038;2024-03-23T03:22:46;5.53;;;1.30;;
59418;SDS011;45224;50.904;6.038;2024-03-23T03:24:17;2.60;;;0.95;;
59418;SDS011;45224;50.904;6.038;2024-03-23T03:25:47;5.38;;;1.23;;
59418;SDS011;45224;50.904;6.038;2024-03-23T03:27:17;4.75;;;1.50;;
59418;SDS011;45224;50.904;6.038;2024-03-23T03:28:48;6.10;;;1.45;;
59418;SDS011;45224;50.904;6.038;2024-03-23T03:30:19;3.22;;;1.00;;
59418;SDS011;45224;50.904;6.038;2024-03-23T03:31:49;2.63;;;0.90;;
59418;SDS011;45224;50.904;6.038;2024-03-23T03:33:20;4.53;;;1.20;;
59418;SDS011;45224;50.904;6.038;2024-03-23T03:34:50;6.97;;;1.50;;
59418;SDS011;45224;50.904;6.038;2024-03-23T03:36:21;7.68;;;1.48;;
59418;SDS011;45224;50.904;6.038;2024-03-23T03:37:51;4.88;;;1.20;;
59418;SDS011;45224;50.904;6.038;2024-03-23T03:39:21;8.55;;;1.73;;
59418;SDS011;45224;50.904;6.038;2024-03-23T03:40:52;6.28;;;1.13;;
59418;SDS011;45224;50.904;6.038;2024-03-23T03:42:23;7.28;;;1.40;;
59418;SDS011;45224;50.904;6.038;2024-03-23T03:43:53;3.20;;;1.13;;
59418;SDS011;45224;50.904;6.038;2024-03-23T03:45:25;8.05;;;1.38;;
59418;SDS011;45224;50.904;6.038;2024-03-23T03:46:55;3.72;;;1.05;;
59418;SDS011;45224;50.904;6.038;2024-03-23T03:48:26;8.80;;;1.58;;
59418;SDS011;45224;50.904;6.038;2024-03-23T03:49:57;5.65;;;1.25;;
59418;SDS011;45224;50.904;6.038;2024-03-23T03:51:27;5.80;;;1.20;;
59418;SDS011;45224;50.904;6.038;2024-03-23T03:52:58;5.57;;;1.02;;
59418;SDS011;45224;50.904;6.038;2024-03-23T03:54:28;3.00;;;1.00;;
59418;SDS011;45224;50.904;6.038;2024-03-23T03:56:01;6.45;;;1.30;;
59418;SDS011;45224;50.904;6.038;2024-03-23T03:57:32;5.32;;;1.38;;
59418;SDS011;45224;50.904;6.038;2024-03-23T03:59:03;4.25;;;1.08;;
59418;SDS011;45224;50.904;6.038;2024-03-23T04:00:33;3.10;;;1.20;;
59418;SDS011;45224;50.904;6.038;2024-03-23T04:02:03;3.83;;;1.10;;
59418;SDS011;45224;50.904;6.038;2024-03-23T04:03:34;6.32;;;1.50;;
59418;SDS011;45224;50.904;6.038;2024-03-23T04:05:04;6.35;;;1.33;;
59418;SDS011;45224;50.904;6.038;2024-03-23T04:06:35;4.10;;;1.13;;
59418;SDS011;45224;50.904;6.038;2024-03-23T04:08:07;6.05;;;1.35;;
59418;SDS011;45224;50.904;6.038;2024-03-23T04:09:37;6.95;;;1.48;;
59418;SDS011;45224;50.904;6.038;2024-03-23T04:11:08;8.07;;;1.27;;
59418;SDS011;45224;50.904;6.038;2024-03-23T04:12:38;8.55;;;1.40;;
59418;SDS011;45224;50.904;6.038;2024-03-23T04:14:08;9.07;;;1.30;;
59418;SDS011;45224;50.904;6.038;2024-03-23T04:15:39;4.25;;;1.00;;
59418;SDS011;45224;50.904;6.038;2024-03-23T04:17:10;5.97;;;1.33;;
59418;SDS011;45224;50.904;6.038;2024-03-23T04:18:40;6.45;;;1.50;;
59418;SDS011;45224;50.904;6.038;2024-03-23T04:20:11;6.10;;;1.38;;
59418;SDS011;45224;50.904;6.038;2024-03-23T04:21:43;5.88;;;1.42;;
59418;SDS011;45224;50.904;6.038;2024-03-23T04:23:14;6.15;;;1.45;;
59418;SDS011;45224;50.904;6.038;2024-03-23T04:24:45;5.38;;;1.23;;
59418;SDS011;45224;50.904;6.038;2024-03-23T04:26:15;5.70;;;1.50;;
59418;SDS011;45224;50.904;6.038;2024-03-23T04:27:46;8.52;;;1.65;;
59418;SDS011;45224;50.904;6.038;2024-03-23T04:29:16;6.47;;;1.48;;
59418;SDS011;45224;50.904;6.038;2024-03-23T04:30:47;5.55;;;1.80;;
59418;SDS011;45224;50.904;6.038;2024-03-23T04:32:17;7.50;;;1.63;;
59418;SDS011;45224;50.904;6.038;2024-03-23T04:33:48;9.85;;;2.00;;
59418;SDS011;45224;50.904;6.038;2024-03-23T04:35:18;8.25;;;1.98;;
59418;SDS011;45224;50.904;6.038;2024-03-23T04:36:50;9.00;;;1.90;;
59418;SDS011;45224;50.904;6.038;2024-03-23T04:38:20;7.75;;;1.52;;
59418;SDS011;45224;50.904;6.038;2024-03-23T04:39:51;8.00;;;1.65;;
59418;SDS011;45224;50.904;6.038;2024-03-23T04:41:21;6.50;;;1.50;;
59418;SDS011;45224;50.904;6.038;2024-03-23T04:42:51;4.50;;;1.90;;
59418;SDS011;45224;50.904;6.038;2024-03-23T04:44:22;6.03;;;1.98;;
59418;SDS011;45224;50.904;6.038;2024-03-23T04:45:52;8.18;;;2.00;;
59418;SDS011;45224;50.904;6.038;2024-03-23T04:47:23;9.02;;;1.95;;
59418;SDS011;45224;50.904;6.038;2024-03-23T04:48:53;5.18;;;1.55;;
59418;SDS011;45224;50.904;6.038;2024-03-23T04:50:23;7.43;;;2.10;;
59418;SDS011;45224;50.904;6.038;2024-03-23T04:51:54;4.18;;;1.40;;
59418;SDS011;45224;50.904;6.038;2024-03-23T04:53:24;6.57;;;1.63;;
59418;SDS011;45224;50.904;6.038;2024-03-23T04:54:59;8.10;;;1.60;;
59418;SDS011;45224;50.904;6.038;2024-03-23T04:56:29;5.05;;;2.10;;
59418;SDS011;45224;50.904;6.038;2024-03-23T04:58:01;7.40;;;1.85;;
59418;SDS011;45224;50.904;6.038;2024-03-23T04:59:32;5.63;;;1.90;;
59418;SDS011;45224;50.904;6.038;2024-03-23T05:01:03;13.32;;;2.47;;
59418;SDS011;45224;50.904;6.038;2024-03-23T05:02:33;6.75;;;1.98;;
59418;SDS011;45224;50.904;6.038;2024-03-23T05:04:04;6.03;;;1.40;;
59418;SDS011;45224;50.904;6.038;2024-03-23T05:05:35;7.40;;;1.80;;
59418;SDS011;45224;50.904;6.038;2024-03-23T05:07:05;10.48;;;2.65;;
59418;SDS011;45224;50.904;6.038;2024-03-23T05:08:36;7.03;;;1.60;;
59418;SDS011;45224;50.904;6.038;2024-03-23T05:10:07;7.43;;;1.48;;
59418;SDS011;45224;50.904;6.038;2024-03-23T05:11:41;11.88;;;2.60;;
59418;SDS011;45224;50.904;6.038;2024-03-23T05:13:14;6.95;;;1.52;;
59418;SDS011;45224;50.904;6.038;2024-03-23T05:14:44;6.13;;;1.75;;
59418;SDS011;45224;50.904;6.038;2024-03-23T05:16:15;9.18;;;1.65;;
59418;SDS011;45224;50.904;6.038;2024-03-23T05:17:45;6.57;;;1.70;;
59418;SDS011;45224;50.904;6.038;2024-03-23T05:19:15;6.30;;;1.40;;
59418;SDS011;45224;50.904;6.038;2024-03-23T05:20:46;7.40;;;1.85;;
59418;SDS011;45224;50.904;6.038;2024-03-23T05:22:16;5.50;;;1.55;;
59418;SDS011;45224;50.904;6.038;2024-03-23T05:23:47;6.50;;;1.98;;
59418;SDS011;45224;50.904;6.038;2024-03-23T05:25:17;5.13;;;1.70;;
59418;SDS011;45224;50.904;6.038;2024-03-23T05:26:48;8.85;;;1.65;;
59418;SDS011;45224;50.904;6.038;2024-03-23T05:28:18;7.63;;;1.90;;
59418;SDS011;45224;50.904;6.038;2024-03-23T05:29:49;4.07;;;1.55;;
59418;SDS011;45224;50.904;6.038;2024-03-23T05:31:23;8.30;;;1.73;;
59418;SDS011;45224;50.904;6.038;2024-03-23T05:32:57;8.10;;;2.15;;
59418;SDS011;45224;50.904;6.038;2024-03-23T05:34:27;4.00;;;1.52;;
59418;SDS011;45224;50.904;6.038;2024-03-23T05:36:00;9.77;;;2.30;;
59418;SDS011;45224;50.904;6.038;2024-03-23T05:37:31;5.63;;;1.83;;
59418;SDS011;45224;50.904;6.038;2024-03-23T05:39:04;6.45;;;2.40;;
59418;SDS011;45224;50.904;6.038;2024-03-23T05:40:34;7.38;;;1.70;;
59418;SDS011;45224;50.904;6.038;2024-03-23T05:42:07;9.05;;;2.20;;
59418;SDS011;45224;50.904;6.038;2024-03-23T05:43:38;4.68;;;1.85;;
59418;SDS011;45224;50.904;6.038;2024-03-23T05:45:08;8.95;;;2.20;;
59418;SDS011;45224;50.904;6.038;2024-03-23T05:46:39;6.82;;;2.38;;
59418;SDS011;45224;50.904;6.038;2024-03-23T05:48:09;10.20;;;2.20;;
59418;SDS011;45224;50.904;6.038;2024-03-23T05:49:40;5.43;;;2.17;;
59418;SDS011;45224;50.904;6.038;2024-03-23T05:51:13;6.13;;;2.38;;
59418;SDS011;45224;50.904;6.038;2024-03-23T05:52:44;7.70;;;2.42;;
59418;SDS011;45224;50.904;6.038;2024-03-23T05:54:14;8.23;;;2.38;;
59418;SDS011;45224;50.904;6.038;2024-03-23T05:55:45;11.40;;;2.90;;
59418;SDS011;45224;50.904;6.038;2024-03-23T05:57:15;9.80;;;2.50;;
59418;SDS011;45224;50.904;6.038;2024-03-23T05:58:45;9.35;;;2.70;;
59418;SDS011;45224;50.904;6.038;2024-03-23T06:00:16;9.10;;;2.35;;
59418;SDS011;45224;50.904;6.038;2024-03-23T06:01:47;5.70;;;2.45;;
59418;SDS011;45224;50.904;6.038;2024-03-23T06:03:18;10.50;;;3.17;;
59418;SDS011;45224;50.904;6.038;2024-03-23T06:04:48;6.20;;;2.47;;
59418;SDS011;45224;50.904;6.038;2024-03-23T06:06:18;6.90;;;2.78;;
59418;SDS011;45224;50.904;6.038;2024-03-23T06:07:49;8.73;;;2.35;;
59418;SDS011;45224;50.904;6.038;2024-03-23T06:09:20;7.20;;;3.00;;
59418;SDS011;45224;50.904;6.038;2024-03-23T06:10:51;11.50;;;3.78;;
59418;SDS011;45224;50.904;6.038;2024-03-23T06:12:22;13.88;;;3.35;;
59418;SDS011;45224;50.904;6.038;2024-03-23T06:13:52;7.15;;;3.08;;
59418;SDS011;45224;50.904;6.038;2024-03-23T06:15:22;7.22;;;3.13;;
59418;SDS011;45224;50.904;6.038;2024-03-23T06:16:53;8.48;;;3.00;;
59418;SDS011;45224;50.904;6.038;2024-03-23T06:18:23;8.43;;;3.17;;
59418;SDS011;45224;50.904;6.038;2024-03-23T06:19:54;10.00;;;3.30;;
59418;SDS011;45224;50.904;6.038;2024-03-23T06:21:24;5.65;;;2.92;;
59418;SDS011;45224;50.904;6.038;2024-03-23T06:22:55;7.43;;;3.38;;
59418;SDS011;45224;50.904;6.038;2024-03-23T06:24:25;8.50;;;3.10;;
59418;SDS011;45224;50.904;6.038;2024-03-23T06:25:56;9.73;;;3.20;;
59418;SDS011;45224;50.904;6.038;2024-03-23T06:27:26;11.43;;;2.97;;
59418;SDS011;45224;50.904;6.038;2024-03-23T06:28:56;9.75;;;3.42;;
59418;SDS011;45224;50.904;6.038;2024-03-23T06:30:27;8.27;;;2.97;;
59418;SDS011;45224;50.904;6.038;2024-03-23T06:31:57;10.20;;;4.00;;
59418;SDS011;45224;50.904;6.038;2024-03-23T06:33:28;9.57;;;3.72;;
59418;SDS011;45224;50.904;6.038;2024-03-23T06:34:58;9.23;;;3.55;;
59418;SDS011;45224;50.904;6.038;2024-03-23T06:36:29;10.85;;;3.70;;
59418;SDS011;45224;50.904;6.038;2024-03-23T06:38:00;9.70;;;3.35;;
59418;SDS011;45224;50.904;6.038;2024-03-23T06:39:31;9.75;;;3.45;;
59418;SDS011;45224;50.904;6.038;2024-03-23T06:41:04;8.52;;;3.40;;
59418;SDS011;45224;50.904;6.038;2024-03-23T06:42:36;10.95;;;3.65;;
59418;SDS011;45224;50.904;6.038;2024-03-23T06:44:06;12.25;;;3.15;;
59418;SDS011;45224;50.904;6.038;2024-03-23T06:45:37;9.23;;;3.42;;
59418;SDS011;45224;50.904;6.038;2024-03-23T06:47:07;7.90;;;3.42;;
59418;SDS011;45224;50.904;6.038;2024-03-23T06:48:38;9.05;;;3.25;;
59418;SDS011;45224;50.904;6.038;2024-03-23T06:50:08;9.00;;;3.35;;
59418;SDS011;45224;50.904;6.038;2024-03-23T06:51:40;7.15;;;1.75;;
59418;SDS011;45224;50.904;6.038;2024-03-23T06:53:11;3.72;;;1.38;;
59418;SDS011;45224;50.904;6.038;2024-03-23T06:54:41;5.90;;;1.40;;
59418;SDS011;45224;50.904;6.038;2024-03-23T06:56:11;5.18;;;1.70;;
59418;SDS011;45224;50.904;6.038;2024-03-23T06:57:42;3.10;;;1.00;;
59418;SDS011;45224;50.904;6.038;2024-03-23T06:59:12;3.03;;;1.20;;
59418;SDS011;45224;50.904;6.038;2024-03-23T07:00:43;2.75;;;0.80;;
59418;SDS011;45224;50.904;6.038;2024-03-23T07:02:13;4.88;;;1.15;;
59418;SDS011;45224;50.904;6.038;2024-03-23T07:03:44;1.75;;;1.00;;
59418;SDS011;45224;50.904;6.038;2024-03-23T07:05:15;2.53;;;0.98;;
59418;SDS011;45224;50.904;6.038;2024-03-23T07:06:45;2.97;;;1.10;;
59418;SDS011;45224;50.904;6.038;2024-03-23T07:08:16;4.30;;;1.10;;
59418;SDS011;45224;50.904;6.038;2024-03-23T07:09:51;3.78;;;1.20;;
59418;SDS011;45224;50.904;6.038;2024-03-23T07:11:23;2.00;;;0.93;;
59418;SDS011;45224;50.904;6.038;2024-03-23T07:12:54;3.35;;;1.10;;
59418;SDS011;45224;50.904;6.038;2024-03-23T07:14:24;4.85;;;1.50;;
59418;SDS011;45224;50.904;6.038;2024-03-23T07:15:55;3.40;;;1.10;;
59418;SDS011;45224;50.904;6.038;2024-03-23T07:17:26;4.20;;;1.30;;
59418;SDS011;45224;50.904;6.038;2024-03-23T07:18:56;3.40;;;1.40;;
59418;SDS011;45224;50.904;6.038;2024-03-23T07:20:27;4.13;;;1.50;;
59418;SDS011;45224;50.904;6.038;2024-03-23T07:21:57;6.10;;;1.67;;
59418;SDS011;45224;50.904;6.038;2024-03-23T07:23:28;4.82;;;1.83;;
59418;SDS011;45224;50.904;6.038;2024-03-23T07:25:01;3.72;;;1.63;;
59418;SDS011;45224;50.904;6.038;2024-03-23T07:26:32;4.82;;;1.63;;
59418;SDS011;45224;50.904;6.038;2024-03-23T07:28:03;4.05;;;2.05;;
59418;SDS011;45224;50.904;6.038;2024-03-23T07:29:33;4.93;;;2.40;;
59418;SDS011;45224;50.904;6.038;2024-03-23T07:31:04;5.10;;;2.17;;
59418;SDS011;45224;50.904;6.038;2024-03-23T07:32:36;6.20;;;2.67;;
59418;SDS011;45224;50.904;6.038;2024-03-23T07:34:06;4.47;;;2.22;;
59418;SDS011;45224;50.904;6.038;2024-03-23T07:35:37;5.47;;;2.50;;
59418;SDS011;45224;50.904;6.038;2024-03-23T07:37:07;8.85;;;3.10;;
59418;SDS011;45224;50.904;6.038;2024-03-23T07:38:40;6.95;;;2.70;;
59418;SDS011;45224;50.904;6.038;2024-03-23T07:40:11;7.40;;;3.13;;
59418;SDS011;45224;50.904;6.038;2024-03-23T07:41:44;6.55;;;2.47;;
59418;SDS011;45224;50.904;6.038;2024-03-23T07:43:15;6.32;;;3.33;;
59418;SDS011;45224;50.904;6.038;2024-03-23T07:44:45;4.40;;;2.72;;
59418;SDS011;45224;50.904;6.038;2024-03-23T07:46:16;6.00;;;2.83;;
59418;SDS011;45224;50.904;6.038;2024-03-23T07:47:47;11.15;;;3.30;;
59418;SDS011;45224;50.904;6.038;2024-03-23T07:49:17;7.00;;;3.00;;
59418;SDS011;45224;50.904;6.038;2024-03-23T07:50:58;7.82;;;3.40;;
59418;SDS011;45224;50.904;6.038;2024-03-23T07:52:36;9.38;;;3.20;;
59418;SDS011;45224;50.904;6.038;2024-03-23T07:54:07;7.68;;;3.22;;
59418;SDS011;45224;50.904;6.038;2024-03-23T07:55:37;10.98;;;3.47;;
59418;SDS011;45224;50.904;6.038;2024-03-23T07:57:07;10.25;;;3.83;;
59418;SDS011;45224;50.904;6.038;2024-03-23T07:58:38;9.07;;;3.45;;
59418;SDS011;45224;50.904;6.038;2024-03-23T08:00:09;16.85;;;4.05;;
59418;SDS011;45224;50.904;6.038;2024-03-23T08:01:40;10.98;;;3.10;;
59418;SDS011;45224;50.904;6.038;2024-03-23T08:03:10;8.35;;;3.30;;
59418;SDS011;45224;50.904;6.038;2024-03-23T08:04:41;12.55;;;3.75;;
59418;SDS011;45224;50.904;6.038;2024-03-23T08:06:12;16.48;;;4.05;;
59418;SDS011;45224;50.904;6.038;2024-03-23T08:07:49;10.18;;;2.95;;
59418;SDS011;45224;50.904;6.038;2024-03-23T08:09:20;9.02;;;3.25;;
59418;SDS011;45224;50.904;6.038;2024-03-23T08:10:51;12.02;;;3.08;;
59418;SDS011;45224;50.904;6.038;2024-03-23T08:12:22;11.43;;;3.53;;
59418;SDS011;45224;50.904;6.038;2024-03-23T08:13:52;11.00;;;3.40;;
59418;SDS011;45224;50.904;6.038;2024-03-23T08:15:23;11.13;;;3.10;;
59418;SDS011;45224;50.904;6.038;2024-03-23T08:16:54;16.38;;;4.38;;
59418;SDS011;45224;50.904;6.038;2024-03-23T08:18:25;8.95;;;3.15;;
59418;SDS011;45224;50.904;6.038;2024-03-23T08:19:55;8.63;;;2.95;;
59418;SDS011;45224;50.904;6.038;2024-03-23T08:21:26;9.73;;;2.75;;
59418;SDS011;45224;50.904;6.038;2024-03-23T08:22:57;10.30;;;2.50;;
59418;SDS011;45224;50.904;6.038;2024-03-23T08:24:27;7.78;;;2.47;;
59418;SDS011;45224;50.904;6.038;2024-03-23T08:25:58;6.85;;;2.50;;
59418;SDS011;45224;50.904;6.038;2024-03-23T08:27:29;11.23;;;3.08;;
59418;SDS011;45224;50.904;6.038;2024-03-23T08:29:00;6.70;;;2.33;;
59418;SDS011;45224;50.904;6.038;2024-03-23T08:30:31;8.77;;;2.50;;
59418;SDS011;45224;50.904;6.038;2024-03-23T08:32:01;9.15;;;2.35;;
59418;SDS011;45224;50.904;6.038;2024-03-23T08:33:32;5.80;;;2.28;;
59418;SDS011;45224;50.904;6.038;2024-03-23T08:35:03;7.22;;;2.17;;
59418;SDS011;45224;50.904;6.038;2024-03-23T08:36:34;6.07;;;1.90;;
59418;SDS011;45224;50.904;6.038;2024-03-23T08:38:04;6.95;;;2.15;;
59418;SDS011;45224;50.904;6.038;2024-03-23T08:39:35;7.07;;;2.20;;
59418;SDS011;45224;50.904;6.038;2024-03-23T08:41:06;9.70;;;2.10;;
59418;SDS011;45224;50.904;6.038;2024-03-23T08:42:37;7.72;;;2.13;;
59418;SDS011;45224;50.904;6.038;2024-03-23T08:44:08;9.65;;;2.88;;
59418;SDS011;45224;50.904;6.038;2024-03-23T08:45:38;7.72;;;2.20;;
59418;SDS011;45224;50.904;6.038;2024-03-23T08:47:08;8.10;;;2.40;;
59418;SDS011;45224;50.904;6.038;2024-03-23T08:48:40;10.50;;;1.95;;
59418;SDS011;45224;50.904;6.038;2024-03-23T08:50:15;7.20;;;1.80;;
59418;SDS011;45224;50.904;6.038;2024-03-23T08:51:45;8.70;;;1.80;;
59418;SDS011;45224;50.904;6.038;2024-03-23T08:53:16;4.97;;;1.67;;
59418;SDS011;45224;50.904;6.038;2024-03-23T08:54:46;8.38;;;2.00;;
59418;SDS011;45224;50.904;6.038;2024-03-23T08:56:17;8.68;;;2.20;;
59418;SDS011;45224;50.904;6.038;2024-03-23T08:57:47;12.02;;;2.20;;
59418;SDS011;45224;50.904;6.038;2024-03-23T08:59:17;7.65;;;2.33;;
59418;SDS011;45224;50.904;6.038;2024-03-23T09:00:48;6.45;;;1.98;;
59418;SDS011;45224;50.904;6.038;2024-03-23T09:02:19;5.78;;;1.40;;
59418;SDS011;45224;50.904;6.038;2024-03-23T09:03:49;5.85;;;1.55;;
59418;SDS011;45224;50.904;6.038;2024-03-23T09:05:20;4.80;;;1.55;;
59418;SDS011;45224;50.904;6.038;2024-03-23T09:06:50;8.43;;;1.85;;
59418;SDS011;45224;50.904;6.038;2024-03-23T09:08:21;5.55;;;1.73;;
59418;SDS011;45224;50.904;6.038;2024-03-23T09:09:52;6.22;;;1.75;;
59418;SDS011;45224;50.904;6.038;2024-03-23T09:11:22;3.33;;;1.20;;
59418;SDS011;45224;50.904;6.038;2024-03-23T09:12:52;5.18;;;1.23;;
59418;SDS011;45224;50.904;6.038;2024-03-23T09:14:23;4.50;;;1.40;;
59418;SDS011;45224;50.904;6.038;2024-03-23T09:15:53;6.88;;;1.83;;
59418;SDS011;45224;50.904;6.038;2024-03-23T09:17:26;4.10;;;1.30;;
59418;SDS011;45224;50.904;6.038;2024-03-23T09:18:56;5.32;;;1.50;;
59418;SDS011;45224;50.904;6.038;2024-03-23T09:20:27;6.10;;;1.40;;
59418;SDS011;45224;50.904;6.038;2024-03-23T09:21:57;3.80;;;1.35;;
59418;SDS011;45224;50.904;6.038;2024-03-23T09:23:28;6.85;;;1.70;;
59418;SDS011;45224;50.904;6.038;2024-03-23T09:24:58;6.80;;;1.52;;
59418;SDS011;45224;50.904;6.038;2024-03-23T09:26:29;7.32;;;1.88;;
59418;SDS011;45224;50.904;6.038;2024-03-23T09:28:00;5.38;;;1.55;;
59418;SDS011;45224;50.904;6.038;2024-03-23T09:29:30;2.72;;;1.05;;
59418;SDS011;45224;50.904;6.038;2024-03-23T09:31:04;7.60;;;1.35;;
59418;SDS011;45224;50.904;6.038;2024-03-23T09:32:38;7.38;;;1.25;;
59418;SDS011;45224;50.904;6.038;2024-03-23T09:34:08;7.45;;;1.92;;
59418;SDS011;45224;50.904;6.038;2024-03-23T09:35:39;4.63;;;1.23;;
59418;SDS011;45224;50.904;6.038;2024-03-23T09:37:10;10.05;;;1.58;;
59418;SDS011;45224;50.904;6.038;2024-03-23T09:38:41;5.03;;;1.55;;
59418;SDS011;45224;50.904;6.038;2024-03-23T09:40:12;5.35;;;1.27;;
59418;SDS011;45224;50.904;6.038;2024-03-23T09:41:42;4.28;;;1.38;;
59418;SDS011;45224;50.904;6.038;2024-03-23T09:43:13;4.90;;;1.25;;
59418;SDS011;45224;50.904;6.038;2024-03-23T09:44:43;6.00;;;1.67;;
59418;SDS011;45224;50.904;6.038;2024-03-23T09:46:14;3.90;;;1.25;;
59418;SDS011;45224;50.904;6.038;2024-03-23T09:47:45;4.45;;;1.45;;
59418;SDS011;45224;50.904;6.038;2024-03-23T09:49:16;6.28;;;1.38;;
59418;SDS011;45224;50.904;6.038;2024-03-23T09:50:47;2.10;;;0.85;;
59418;SDS011;45224;50.904;6.038;2024-03-23T09:52:18;3.53;;;1.10;;
59418;SDS011;45224;50.904;6.038;2024-03-23T09:53:49;4.45;;;1.00;;
59418;SDS011;45224;50.904;6.038;2024-03-23T09:55:20;4.38;;;1.27;;
59418;SDS011;45224;50.904;6.038;2024-03-23T09:56:50;3.95;;;1.30;;
59418;SDS011;45224;50.904;6.038;2024-03-23T09:58:23;3.88;;;1.35;;
59418;SDS011;45224;50.904;6.038;2024-03-23T09:59:53;4.47;;;1.17;;